Terminal Aerodrome Forecast
Issued by NWS Charleston, WV

Current Version | Previous Version | Text Only | Print | Product List | Glossary Off
Versions: 1 2 3 4 5 6 7 8 9 10 11 12 13 14 15 16 17 18 19 20 21

000
FTUS41 KRLX 250905 AAA
TAFEKN
TAF AMD
KEKN 250905Z 2509/2606 00000KT 4SM BR SKC
     FM251000 00000KT 1SM BR SCT001
     FM251200 00000KT 4SM BR SCT002
     FM251230 00000KT P6SM SKC
     FM251800 27006KT P6SM FEW045
     FM260200 00000KT P6SM BKN080=

USA.gov is the U.S. government's official web portal to all federal, state and local government web resources and services.